createdAt,value
2019-02-21T00:03:12.968Z,4.60
2019-02-21T00:08:17.906Z,2.50
2019-02-21T00:13:28.460Z,3.43
2019-02-21T00:18:33.155Z,3.00
2019-02-21T00:23:37.875Z,3.97
2019-02-21T00:28:44.620Z,4.07
2019-02-21T00:33:49.671Z,3.80
2019-02-21T00:38:54.601Z,2.43
2019-02-21T00:43:59.390Z,3.37
2019-02-21T00:49:04.588Z,3.67
2019-02-21T00:54:09.284Z,4.40
2019-02-21T00:59:13.997Z,4.73
2019-02-21T01:04:20.114Z,3.40
2019-02-21T01:09:24.828Z,3.70
2019-02-21T01:14:29.559Z,4.37
2019-02-21T01:19:34.352Z,3.17
2019-02-21T01:24:39.132Z,3.40
2019-02-21T01:29:44.153Z,2.80
2019-02-21T01:34:49.382Z,2.90
2019-02-21T01:39:54.088Z,3.10
2019-02-21T01:45:00.098Z,4.33
2019-02-21T01:50:08.696Z,3.60
2019-02-21T01:55:13.422Z,3.47
2019-02-21T02:00:18.297Z,3.40
2019-02-21T02:05:23.250Z,3.37
2019-02-21T02:10:30.659Z,3.57
2019-02-21T02:15:40.677Z,2.53
2019-02-21T02:20:43.844Z,3.10
2019-02-21T02:25:49.789Z,3.10
2019-02-21T02:30:56.054Z,2.80
2019-02-21T02:36:01.344Z,4.07
2019-02-21T02:41:06.434Z,3.17
2019-02-21T02:46:12.497Z,2.97
2019-02-21T02:51:17.537Z,3.00
2019-02-21T02:56:23.542Z,3.70
2019-02-21T03:01:34.727Z,3.03
2019-02-21T03:06:34.662Z,3.63
2019-02-21T03:11:44.202Z,4.17
2019-02-21T03:16:49.198Z,2.70
2019-02-21T03:21:53.925Z,4.10
2019-02-21T03:26:58.918Z,4.43
2019-02-21T03:32:03.639Z,4.53
2019-02-21T03:37:08.486Z,4.17
2019-02-21T03:42:13.503Z,4.27
2019-02-21T03:47:18.166Z,5.30
2019-02-21T03:52:23.963Z,3.00
2019-02-21T03:57:33.399Z,2.90
2019-02-21T04:02:38.371Z,2.77
2019-02-21T04:07:43.030Z,4.60
2019-02-21T04:12:47.669Z,3.30
2019-02-21T04:17:52.580Z,3.20
2019-02-21T04:22:57.459Z,4.67
2019-02-21T04:28:02.384Z,3.97
2019-02-21T04:33:08.328Z,5.60
2019-02-21T04:38:14.010Z,4.10
2019-02-21T04:43:18.650Z,3.20
2019-02-21T04:48:23.553Z,5.07
2019-02-21T04:53:28.185Z,3.23
2019-02-21T04:58:32.838Z,3.47
2019-02-21T05:03:38.144Z,3.47
2019-02-21T05:08:42.806Z,6.90
2019-02-21T05:13:47.755Z,6.00
2019-02-21T05:18:52.450Z,7.57
2019-02-21T05:23:57.417Z,5.33
2019-02-21T05:29:02.785Z,4.77
2019-02-21T05:34:12.763Z,5.57
2019-02-21T05:39:41.145Z,5.63
2019-02-21T05:44:54.228Z,4.90
2019-02-21T05:50:23.294Z,3.80
2019-02-21T05:55:47.026Z,4.73
2019-02-21T06:01:03.502Z,3.97
2019-02-21T06:06:45.422Z,3.70
2019-02-21T06:12:12.859Z,3.57
2019-02-21T06:17:36.591Z,3.90
2019-02-21T06:22:59.996Z,4.10
2019-02-21T06:28:15.964Z,5.77
2019-02-21T06:33:20.605Z,5.63
2019-02-21T06:38:25.499Z,4.40
2019-02-21T06:43:30.480Z,4.77
2019-02-21T06:48:42.267Z,3.93
2019-02-21T06:53:47.132Z,3.50
2019-02-21T06:58:52.037Z,5.27
2019-02-21T07:03:56.744Z,5.30
2019-02-21T07:09:01.383Z,5.47
2019-02-21T07:14:07.856Z,5.77
2019-02-21T07:25:57.950Z,4.63
2019-02-21T07:31:03.341Z,7.30
2019-02-21T07:36:08.024Z,6.70
2019-02-21T07:41:14.241Z,5.40
2019-02-21T07:46:18.864Z,4.60
2019-02-21T07:51:23.530Z,5.30
2019-02-21T07:56:41.185Z,4.83
2019-02-21T08:01:37.644Z,5.23
2019-02-21T08:06:42.293Z,5.10
2019-02-21T08:11:46.936Z,5.47
2019-02-21T08:16:51.594Z,6.70
2019-02-21T08:21:56.497Z,6.10
2019-02-21T08:27:02.271Z,5.30
2019-02-21T08:32:08.553Z,6.80
2019-02-21T08:37:13.205Z,7.03
2019-02-21T08:42:17.917Z,7.17
2019-02-21T08:47:23.938Z,8.97
2019-02-21T08:52:30.156Z,7.70
2019-02-21T08:57:34.981Z,6.10
2019-02-21T09:02:40.296Z,7.70
2019-02-21T09:07:46.457Z,7.30
2019-02-21T09:12:51.336Z,6.83
2019-02-21T09:17:55.989Z,6.87
2019-02-21T09:23:02.393Z,8.03
2019-02-21T09:28:08.860Z,7.73
2019-02-21T09:33:17.359Z,10.17
2019-02-21T09:38:20.093Z,9.20
2019-02-21T20:21:04.200Z,15.47
2019-02-21T20:26:17.864Z,10.93
2019-02-21T20:31:16.987Z,13.30
2019-02-21T20:36:22.092Z,13.90
2019-02-21T20:41:26.835Z,14.80
2019-02-21T20:46:31.813Z,14.30
2019-02-21T20:51:36.577Z,13.27
2019-02-21T20:56:41.502Z,14.37
2019-02-21T21:01:46.458Z,12.30
2019-02-21T21:06:51.181Z,14.00
2019-02-21T21:11:55.913Z,12.47
2019-02-21T21:17:00.813Z,15.53
2019-02-21T21:22:07.368Z,13.30
2019-02-21T21:27:12.040Z,12.50
2019-02-21T21:32:16.744Z,13.03
2019-02-21T21:37:24.628Z,20.30
2019-02-21T21:42:30.740Z,17.67
2019-02-21T21:47:36.753Z,17.47
2019-02-21T21:52:41.580Z,20.17
2019-02-21T21:57:46.395Z,19.57
2019-02-21T22:02:51.934Z,17.07
2019-02-21T22:07:56.826Z,14.70
2019-02-21T22:13:02.843Z,16.30
2019-02-21T22:18:10.424Z,17.90
2019-02-21T22:23:16.810Z,15.77
2019-02-21T22:28:21.593Z,18.03
2019-02-21T22:33:26.525Z,13.83
2019-02-21T22:38:31.258Z,14.70
2019-02-21T22:43:37.021Z,14.37
2019-02-21T22:48:47.165Z,16.80
2019-02-21T22:53:49.321Z,16.53
2019-02-21T22:58:55.601Z,16.07
2019-02-21T23:04:20.296Z,17.33
2019-02-21T23:09:27.831Z,19.83
2019-02-21T23:14:33.069Z,15.77
2019-02-21T23:19:38.281Z,22.00
2019-02-21T23:24:43.341Z,18.30
2019-02-21T23:29:49.706Z,19.37
2019-02-21T23:34:57.708Z,18.07
2019-02-21T23:40:04.280Z,20.00
2019-02-21T23:45:09.521Z,20.13
2019-02-21T23:50:16.451Z,21.37
2019-02-21T23:55:21.838Z,19.30
